Grace Hill, Iowa
Current Conditions -  °F | °C
As of 9:35 PM on Monday 22 Dec 2014 (Local Time) from KAWG Reporting Station
Light Rain Light Rain  
Wind Chill:   Ceiling: 300
Heat Index:   Visibility: 2.5mi
Dew Point:   Wind: 10mph
Humidity: 100%   Direction: 110°ESE
Pressure: 29.46"   Gusts: NA
Location:  41.3124°N, 91.7455°W
Report Text: KAWG 230335Z AUTO 11009KT 2 1/2SM -RA OVC003 05/05 A2946 RMK AO2
Loading
Personal Weather Stations






























Interactive Weather Map New forecast layout! Learn more

10-Day Weather Forecast

Advertisements
Track Severe Weather on mobile